Terminal Aerodrome Forecast
Issued by NWS

Current Version | Previous Version | Graphics & Text | Print | Product List | Glossary On
Versions: 1 2 3 4 5 6 7 8 9 10 11 12 13 14 15 16 17 18 19 20 21 22 23 24 25
000
FTUS41 KRLX 181700
TAFCKB
TAF
KCKB 181738Z 1818/1918 25006KT P6SM OVC022
     FM182200 26005KT P6SM BKN025 OVC060
     FM190300 26004KT 6SM -SHSN BKN020
     FM190800 26004KT 5SM -SHSN BR OVC020
     FM191700 26006KT 6SM -SHSN BKN025=

USA.gov is the U.S. government's official web portal to all federal, state and local government web resources and services.